Time;durP1;ratioP1;P1;durP2;ratioP2;P2;SDS_P1;SDS_P2;PMS_P1;PMS_P2;Temp;Humidity;BMP_temperature;BMP_pressure;BME280_temperature;BME280_humidity;BME280_pressure;Samples;Min_cycle;Max_cycle;Signal;HPM_P1;HPM_P2
2022/04/19 00:00:51;;;;;;;2.90;2.60;;;6.90;1.00;;;;;;5039830;28;20981;-88
2022/04/19 00:03:17;;;;;;;5.60;2.50;;;6.80;99.90;;;;;;5039939;28;21049;-93
2022/04/19 00:05:44;;;;;;;4.87;1.90;;;6.90;99.90;;;;;;5057560;28;20398;-93
2022/04/19 00:08:11;;;;;;;3.07;2.50;;;6.90;99.90;;;;;;5057384;28;20507;-93
2022/04/19 00:10:37;;;;;;;6.17;4.63;;;6.90;99.90;;;;;;5039757;28;20506;-92
2022/04/19 00:13:04;;;;;;;4.93;4.10;;;6.90;1.00;;;;;;5039568;28;20516;-90
2022/04/19 00:15:31;;;;;;;5.50;4.00;;;6.80;99.90;;;;;;5039507;28;20426;-93
2022/04/19 00:17:58;;;;;;;5.20;2.67;;;6.70;99.90;;;;;;5039581;28;20481;-91
2022/04/19 00:20:24;;;;;;;4.10;2.70;;;6.60;1.00;;;;;;5039458;28;20780;-90
2022/04/19 00:22:50;;;;;;;4.20;2.37;;;6.60;1.00;;;;;;5039316;28;20433;-92
2022/04/19 00:25:16;;;;;;;2.50;1.10;;;6.60;1.00;;;;;;5039438;28;20414;-92
2022/04/19 00:27:42;;;;;;;4.27;2.40;;;6.50;1.00;;;;;;5039299;28;20292;-89
2022/04/19 00:30:08;;;;;;;2.60;1.40;;;6.40;1.00;;;;;;5057120;28;20940;-92
2022/04/19 00:32:34;;;;;;;3.33;1.20;;;6.50;1.00;;;;;;5039830;28;20427;-91
2022/04/19 00:35:01;;;;;;;2.97;1.43;;;6.50;1.00;;;;;;5039172;28;20417;-93
2022/04/19 00:37:26;;;;;;;3.13;1.17;;;6.50;99.90;;;;;;5056825;28;20422;-91
2022/04/19 00:39:53;;;;;;;3.67;1.67;;;6.50;99.90;;;;;;5055276;28;20419;-93
2022/04/19 00:42:18;;;;;;;2.83;1.43;;;6.50;1.00;;;;;;5056724;28;20191;-93
2022/04/19 00:44:44;;;;;;;3.17;1.13;;;6.50;99.90;;;;;;5038983;28;20415;-91
2022/04/19 00:47:10;;;;;;;2.33;1.50;;;6.50;1.00;;;;;;5056471;28;20673;-86
2022/04/19 00:49:43;;;;;;;3.13;1.40;;;6.40;99.90;;;;;;5056464;28;20206;-89
2022/04/19 00:52:10;;;;;;;2.67;0.60;;;6.30;1.00;;;;;;5039682;28;20408;-94
2022/04/19 00:54:36;;;;;;;2.33;1.10;;;6.30;1.00;;;;;;5039618;28;20417;-94
2022/04/19 00:57:03;;;;;;;1.73;1.20;;;6.30;1.00;;;;;;5039775;28;20420;-94
2022/04/19 00:59:29;;;;;;;2.50;1.13;;;6.10;1.00;;;;;;5038984;28;20425;-93
2022/04/19 01:01:55;;;;;;;1.53;1.07;;;6.40;1.00;;;;;;5039580;28;20469;-92
2022/04/19 01:04:21;;;;;;;2.40;1.30;;;6.20;1.00;;;;;;5039795;28;20420;-91
2022/04/19 01:06:46;;;;;;;1.70;0.97;;;6.10;1.00;;;;;;5039520;28;20233;-83
2022/04/19 01:09:12;;;;;;;1.70;0.63;;;6.10;1.00;;;;;;5055754;28;20941;-83
2022/04/19 01:14:24;;;;;;;2.17;1.17;;;6.00;1.00;;;;;;5062797;28;20393;-86
2022/04/19 01:16:50;;;;;;;2.00;1.50;;;6.00;1.00;;;;;;5065980;28;20880;-85
2022/04/19 01:19:16;;;;;;;2.27;1.10;;;5.90;1.00;;;;;;5061408;28;20883;-85
2022/04/19 01:21:48;;;;;;;4.00;1.10;;;5.80;1.00;;;;;;5061666;28;20458;-85
2022/04/19 01:24:18;;;;;;;1.10;0.80;;;5.80;1.00;;;;;;5061369;28;20564;-84
2022/04/19 01:26:44;;;;;;;1.47;0.50;;;5.80;1.00;;;;;;5056620;28;20413;-86
2022/04/19 01:29:11;;;;;;;3.63;0.83;;;5.70;1.00;;;;;;5037705;28;20970;-88
2022/04/19 01:31:41;;;;;;;1.90;0.80;;;5.70;1.00;;;;;;5037895;28;20417;-86
2022/04/19 01:34:07;;;;;;;3.03;1.70;;;5.60;1.00;;;;;;5056333;28;20816;-88
2022/04/19 01:36:39;;;;;;;1.80;0.87;;;5.50;1.00;;;;;;5055711;28;20515;-89
2022/04/19 01:39:08;;;;;;;1.50;1.00;;;5.50;1.00;;;;;;5055439;28;20418;-89
2022/04/19 01:41:35;;;;;;;2.60;1.57;;;5.40;20.90;;;;;;5055329;28;20497;-89
2022/04/19 01:44:00;;;;;;;2.80;1.13;;;5.40;19.40;;;;;;5055352;28;20429;-88
2022/04/19 01:46:27;;;;;;;3.37;0.80;;;5.30;6.20;;;;;;5055309;28;20450;-90
2022/04/19 01:48:54;;;;;;;2.20;1.07;;;5.30;15.50;;;;;;5055254;28;20207;-87
2022/04/19 01:51:21;;;;;;;2.17;1.17;;;5.30;50.20;;;;;;5037071;28;20417;-89
2022/04/19 01:53:48;;;;;;;2.40;1.00;;;5.30;78.60;;;;;;5055345;28;20417;-90
2022/04/19 01:56:14;;;;;;;2.50;1.30;;;5.30;49.70;;;;;;5055172;28;20495;-90
2022/04/19 01:58:39;;;;;;;2.10;0.90;;;5.30;79.00;;;;;;5055030;28;20467;-88
2022/04/19 02:01:05;;;;;;;1.90;1.27;;;5.30;99.90;;;;;;5054900;28;20292;-89
2022/04/19 02:03:30;;;;;;;3.30;0.63;;;5.20;94.50;;;;;;5055302;28;20174;-90
2022/04/19 02:05:56;;;;;;;1.40;0.83;;;5.30;73.90;;;;;;5055037;28;20170;-88
2022/04/19 02:08:22;;;;;;;1.47;0.87;;;5.20;40.30;;;;;;5054928;28;20195;-88
2022/04/19 02:10:47;;;;;;;2.33;1.03;;;5.10;22.20;;;;;;5054816;28;20411;-87
2022/04/19 02:13:13;;;;;;;4.30;1.30;;;5.00;50.70;;;;;;5054736;28;20171;-89
2022/04/19 02:15:39;;;;;;;1.60;1.27;;;5.00;95.50;;;;;;5055954;28;20170;-89
2022/04/19 02:18:05;;;;;;;1.80;0.80;;;4.90;99.90;;;;;;5056165;28;20165;-89
2022/04/19 02:20:31;;;;;;;4.27;1.83;;;4.90;99.90;;;;;;5057719;28;20435;-88
2022/04/19 02:22:57;;;;;;;3.03;1.40;;;4.80;99.90;;;;;;5055854;28;20235;-89
2022/04/19 02:25:24;;;;;;;3.53;2.10;;;4.70;99.90;;;;;;5055437;28;20908;-88
2022/04/19 02:27:50;;;;;;;3.10;1.43;;;4.70;99.90;;;;;;5054969;28;20189;-87
2022/04/19 02:30:16;;;;;;;3.13;1.83;;;4.60;99.90;;;;;;5054651;28;20420;-89
2022/04/19 02:32:47;;;;;;;4.40;1.60;;;4.60;99.90;;;;;;5054321;28;20439;-88
2022/04/19 02:35:21;;;;;;;1.57;0.77;;;4.60;99.90;;;;;;5054040;28;20521;-85
2022/04/19 02:37:50;;;;;;;1.90;1.00;;;4.50;99.90;;;;;;5054139;28;20444;-89
2022/04/19 02:40:18;;;;;;;1.17;0.57;;;4.50;99.90;;;;;;5053709;28;20507;-86
2022/04/19 02:42:43;;;;;;;1.97;0.90;;;4.50;99.90;;;;;;5054050;28;20876;-84
2022/04/19 02:45:09;;;;;;;2.50;1.10;;;4.50;99.90;;;;;;5053921;28;20427;-83
2022/04/19 02:47:34;;;;;;;2.70;1.07;;;4.50;99.90;;;;;;5053925;28;20170;-88
2022/04/19 02:50:01;;;;;;;3.83;1.53;;;4.50;99.90;;;;;;5053992;28;20667;-84
2022/04/19 02:52:27;;;;;;;3.33;1.50;;;4.50;99.90;;;;;;5053715;28;20169;-86
2022/04/19 02:54:53;;;;;;;1.80;1.37;;;4.40;99.90;;;;;;5053684;28;20466;-87
2022/04/19 02:57:18;;;;;;;1.80;1.33;;;4.40;99.90;;;;;;5053637;28;20241;-88
2022/04/19 02:59:44;;;;;;;4.27;2.03;;;4.40;99.90;;;;;;5053529;28;20420;-87
2022/04/19 03:02:09;;;;;;;1.57;1.47;;;4.40;99.90;;;;;;5053016;28;20225;-83
2022/04/19 03:04:35;;;;;;;2.23;1.77;;;4.40;99.90;;;;;;5053477;28;20635;-87
2022/04/19 03:07:01;;;;;;;4.10;1.80;;;4.30;99.90;;;;;;5053827;28;20244;-90
2022/04/19 03:09:26;;;;;;;4.77;2.10;;;4.30;99.90;;;;;;5054052;28;20681;-88
2022/04/19 03:11:52;;;;;;;3.20;1.90;;;4.30;99.90;;;;;;5053926;28;20169;-91
2022/04/19 03:14:18;;;;;;;1.17;1.07;;;4.30;99.90;;;;;;5053932;28;20667;-90
2022/04/19 03:16:43;;;;;;;3.17;2.23;;;4.20;99.90;;;;;;5054157;28;20170;-92
2022/04/19 03:19:09;;;;;;;1.87;1.23;;;4.20;99.90;;;;;;5053829;28;20174;-90
2022/04/19 03:21:34;;;;;;;2.27;1.90;;;4.20;99.90;;;;;;5053928;28;20638;-87
2022/04/19 03:29:28;;;;;;;4.20;1.93;;;4.20;99.90;;;;;;5053186;28;20467;-85
2022/04/19 03:31:55;;;;;;;1.90;1.43;;;4.20;99.90;;;;;;5053238;28;20412;-85
2022/04/19 03:34:20;;;;;;;3.93;1.50;;;4.30;99.90;;;;;;5053155;28;20255;-84
2022/04/19 03:36:46;;;;;;;2.70;1.47;;;4.30;99.90;;;;;;5053092;28;20937;-84
2022/04/19 03:39:11;;;;;;;2.33;1.87;;;4.30;99.90;;;;;;5053228;28;20605;-86
2022/04/19 03:41:37;;;;;;;2.37;1.20;;;4.30;99.90;;;;;;5053158;28;20544;-84
2022/04/19 03:44:03;;;;;;;1.70;1.50;;;4.20;99.90;;;;;;5053075;28;20509;-84
2022/04/19 03:46:28;;;;;;;4.93;2.27;;;4.20;99.90;;;;;;5053182;28;20581;-83
2022/04/19 03:48:54;;;;;;;2.73;1.53;;;4.20;99.90;;;;;;5053082;28;20460;-83
2022/04/19 03:51:20;;;;;;;2.00;1.60;;;4.10;99.90;;;;;;5053176;28;20532;-83
2022/04/19 03:53:46;;;;;;;3.00;1.83;;;4.10;99.90;;;;;;5053156;28;20614;-83
2022/04/19 03:56:12;;;;;;;3.47;1.73;;;4.20;99.90;;;;;;5053295;28;20498;-86
2022/04/19 03:58:38;;;;;;;4.23;1.97;;;4.10;99.90;;;;;;5053015;28;20446;-83
2022/04/19 04:01:04;;;;;;;3.60;2.40;;;4.10;99.90;;;;;;5053225;28;20217;-83
2022/04/19 04:03:30;;;;;;;2.50;1.67;;;4.10;99.90;;;;;;5035305;28;20185;-83
2022/04/19 04:05:55;;;;;;;5.70;1.83;;;4.10;99.90;;;;;;5053347;28;20420;-83
2022/04/19 04:08:22;;;;;;;2.93;2.07;;;4.00;99.90;;;;;;5052943;28;20209;-84
2022/04/19 04:10:47;;;;;;;2.33;2.13;;;4.10;99.90;;;;;;5053002;28;20177;-84
2022/04/19 04:13:13;;;;;;;3.10;1.93;;;4.00;99.90;;;;;;5053002;28;20420;-83
2022/04/19 04:15:38;;;;;;;5.27;2.37;;;3.90;99.90;;;;;;5038831;28;20584;-84
2022/04/19 04:18:04;;;;;;;2.40;2.00;;;3.90;99.90;;;;;;5038932;28;20166;-83
2022/04/19 04:20:30;;;;;;;6.80;2.73;;;3.90;99.90;;;;;;5057375;28;20244;-85
2022/04/19 04:22:55;;;;;;;3.00;2.73;;;4.00;99.90;;;;;;5057312;28;20408;-85
2022/04/19 04:28:43;;;;;;;2.73;2.10;;;4.00;99.90;;;;;;5057037;28;20351;-86
2022/04/19 04:31:09;;;;;;;3.83;1.60;;;3.90;99.90;;;;;;5057486;28;20454;-84
2022/04/19 04:33:34;;;;;;;1.97;1.47;;;3.90;99.90;;;;;;5056930;28;20172;-85
2022/04/19 04:36:00;;;;;;;1.70;1.13;;;3.90;99.90;;;;;;5038930;28;20232;-85
2022/04/19 04:38:26;;;;;;;5.40;2.83;;;4.00;99.90;;;;;;5039108;28;20177;-84
2022/04/19 04:40:51;;;;;;;2.70;1.60;;;4.10;99.90;;;;;;5039038;28;20549;-84
2022/04/19 04:43:17;;;;;;;3.33;2.07;;;4.20;99.90;;;;;;5057126;28;20178;-84
2022/04/19 04:45:42;;;;;;;4.63;2.77;;;4.30;99.90;;;;;;5038520;28;20178;-85
2022/04/19 04:50:52;;;;;;;2.57;1.97;;;4.30;99.90;;;;;;5057131;28;20184;-85
2022/04/19 04:53:17;;;;;;;3.50;2.50;;;4.50;99.90;;;;;;5038736;28;20421;-86
2022/04/19 04:55:43;;;;;;;4.13;2.57;;;4.60;99.90;;;;;;5056232;28;20531;-87
2022/04/19 04:58:11;;;;;;;4.23;1.90;;;4.70;99.90;;;;;;5056383;28;20223;-87
2022/04/19 05:00:37;;;;;;;3.97;2.40;;;4.90;99.90;;;;;;5055990;28;20186;-87
2022/04/19 05:03:02;;;;;;;4.20;2.07;;;5.00;99.90;;;;;;5038518;28;20515;-87
2022/04/19 05:05:28;;;;;;;2.63;1.57;;;5.20;99.90;;;;;;5057278;28;20636;-87
2022/04/19 05:07:54;;;;;;;3.27;1.77;;;5.20;99.90;;;;;;5056744;28;20219;-87
2022/04/19 05:10:19;;;;;;;2.77;1.33;;;5.30;99.90;;;;;;5038646;28;20182;-86
2022/04/19 05:12:45;;;;;;;3.13;1.80;;;5.50;22.30;;;;;;5056649;28;20252;-86
2022/04/19 05:15:10;;;;;;;2.57;2.27;;;5.70;2.60;;;;;;5056305;28;20173;-86
2022/04/19 05:17:36;;;;;;;4.00;3.07;;;5.80;1.00;;;;;;5056782;28;20498;-85
2022/04/19 05:20:02;;;;;;;3.20;1.97;;;6.10;1.00;;;;;;5056336;28;20682;-84
2022/04/19 05:22:28;;;;;;;2.50;1.90;;;6.30;99.90;;;;;;5056719;28;20172;-85
2022/04/19 05:24:53;;;;;;;2.63;1.63;;;6.70;99.90;;;;;;5038661;28;20414;-85
2022/04/19 05:27:19;;;;;;;2.43;1.40;;;6.90;1.00;;;;;;5055263;28;20177;-85
2022/04/19 05:29:45;;;;;;;2.30;1.30;;;7.40;95.90;;;;;;5055937;28;20215;-85
2022/04/19 05:32:10;;;;;;;2.03;1.23;;;7.60;40.70;;;;;;5037468;28;20635;-86
2022/04/19 05:34:36;;;;;;;3.10;1.30;;;8.10;1.00;;;;;;5055191;28;20179;-87
2022/04/19 05:37:01;;;;;;;3.73;1.90;;;8.30;1.00;;;;;;5037566;28;20177;-88
2022/04/19 05:39:27;;;;;;;2.80;1.50;;;8.20;99.90;;;;;;5037195;28;20216;-87
2022/04/19 05:41:52;;;;;;;2.10;1.43;;;8.00;99.90;;;;;;5055361;28;20177;-88
2022/04/19 05:44:19;;;;;;;2.70;1.17;;;8.10;99.90;;;;;;5037233;28;20183;-86
2022/04/19 05:46:45;;;;;;;2.10;0.97;;;8.30;99.90;;;;;;5055172;28;20180;-89
2022/04/19 05:49:10;;;;;;;2.53;0.90;;;8.70;99.90;;;;;;5054843;28;20900;-84
2022/04/19 05:51:36;;;;;;;1.63;0.80;;;9.10;99.90;;;;;;5054947;28;20171;-87
2022/04/19 05:54:01;;;;;;;1.77;0.80;;;9.10;99.90;;;;;;5055314;28;20207;-87
2022/04/19 05:56:27;;;;;;;2.63;1.33;;;9.50;99.90;;;;;;5036583;28;20200;-87
2022/04/19 05:58:52;;;;;;;3.47;0.90;;;9.80;99.90;;;;;;5055032;28;20619;-87
2022/04/19 06:01:18;;;;;;;2.50;1.43;;;10.20;93.00;;;;;;5054768;28;20226;-89
2022/04/19 06:06:29;;;;;;;1.87;0.80;;;10.40;28.70;;;;;;5055068;28;20217;-88
2022/04/19 06:08:54;;;;;;;6.10;1.30;;;10.90;32.10;;;;;;5054547;28;20463;-87
2022/04/19 06:11:20;;;;;;;2.20;0.70;;;10.80;1.00;;;;;;5054536;28;20175;-87
2022/04/19 06:13:45;;;;;;;2.07;0.53;;;11.30;1.00;;;;;;5054572;28;20536;-87
2022/04/19 06:16:11;;;;;;;2.33;1.07;;;11.70;1.00;;;;;;5054348;28;20683;-88
2022/04/19 06:18:37;;;;;;;3.10;0.80;;;11.20;1.00;;;;;;5036341;28;20221;-87
2022/04/19 06:21:05;;;;;;;6.53;1.40;;;11.50;1.00;;;;;;5054358;28;20174;-87
2022/04/19 06:23:32;;;;;;;2.63;0.77;;;12.40;1.00;;;;;;5054216;28;20937;-85
2022/04/19 06:25:57;;;;;;;2.67;1.73;;;12.80;1.00;;;;;;5054057;28;20469;-88
2022/04/19 06:28:23;;;;;;;3.47;0.90;;;13.10;1.00;;;;;;5054046;28;20966;-87
2022/04/19 06:30:48;;;;;;;3.93;1.53;;;13.40;1.00;;;;;;5036531;28;20189;-89
2022/04/19 06:33:14;;;;;;;2.07;0.50;;;13.30;1.00;;;;;;5054373;28;20166;-89
2022/04/19 06:35:39;;;;;;;2.77;1.30;;;13.60;1.00;;;;;;5054371;28;20212;-91
2022/04/19 06:38:05;;;;;;;2.07;0.63;;;14.50;1.00;;;;;;5036843;28;20182;-93
2022/04/19 06:40:30;;;;;;;1.60;1.07;;;14.20;1.00;;;;;;5036373;28;20211;-84
2022/04/19 06:42:57;;;;;;;3.27;0.70;;;14.90;1.00;;;;;;5054057;28;20179;-85
2022/04/19 06:45:23;;;;;;;2.97;1.23;;;15.70;1.00;;;;;;5053973;28;20174;-84
2022/04/19 06:47:59;;;;;;;1.93;0.40;;;15.60;1.00;;;;;;5053574;28;20481;-84
2022/04/19 06:50:25;;;;;;;2.90;0.73;;;16.10;1.00;;;;;;5053952;28;20814;-85
2022/04/19 06:52:51;;;;;;;2.50;0.90;;;16.90;1.00;;;;;;5053899;28;20504;-84
2022/04/19 06:55:18;;;;;;;1.67;0.80;;;17.30;1.00;;;;;;5053865;28;20520;-83
2022/04/19 06:57:43;;;;;;;2.33;0.53;;;16.90;1.00;;;;;;5053725;28;20784;-84
2022/04/19 07:00:09;;;;;;;2.83;0.70;;;16.40;1.00;;;;;;5053611;28;20518;-85
2022/04/19 07:02:34;;;;;;;1.03;0.57;;;16.40;1.00;;;;;;5053342;28;20676;-85
2022/04/19 07:05:00;;;;;;;1.77;0.67;;;16.50;1.00;;;;;;5053527;28;20177;-84
2022/04/19 07:07:26;;;;;;;2.20;0.70;;;16.60;1.00;;;;;;5053437;28;20193;-85
2022/04/19 07:09:51;;;;;;;2.13;0.83;;;16.80;1.00;;;;;;5053597;28;20205;-85
2022/04/19 07:12:19;;;;;;;3.93;0.60;;;16.50;1.00;;;;;;5053798;28;20424;-85
2022/04/19 07:14:44;;;;;;;2.13;0.70;;;16.00;1.00;;;;;;5053602;28;20249;-85
2022/04/19 07:17:10;;;;;;;3.73;0.80;;;15.00;1.00;;;;;;5053531;28;20417;-85
2022/04/19 07:27:48;;;;;;;8.23;0.80;;;14.50;1.00;;;;;;5053594;28;20857;-85
2022/04/19 07:30:16;;;;;;;1.47;0.50;;;14.80;1.00;;;;;;5053119;28;20459;-84
2022/04/19 07:32:42;;;;;;;1.90;0.80;;;15.80;1.00;;;;;;5053223;28;20232;-85
2022/04/19 07:38:30;;;;;;;1.43;0.93;;;17.60;1.00;;;;;;5053244;28;20826;-85
2022/04/19 07:40:56;;;;;;;1.90;1.40;;;18.10;1.00;;;;;;5053267;28;20418;-85
2022/04/19 07:43:21;;;;;;;1.73;0.97;;;18.40;1.00;;;;;;5053283;28;20762;-86
2022/04/19 07:45:47;;;;;;;2.20;1.20;;;18.80;1.00;;;;;;5053471;28;20169;-85
2022/04/19 07:48:12;;;;;;;1.73;0.87;;;18.40;1.00;;;;;;5053311;28;20664;-84
2022/04/19 07:50:39;;;;;;;1.73;1.10;;;19.00;1.00;;;;;;5057094;28;20259;-86
2022/04/19 07:53:05;;;;;;;1.70;1.00;;;19.00;1.00;;;;;;5057028;28;20164;-83
2022/04/19 07:55:30;;;;;;;1.67;1.27;;;18.50;1.00;;;;;;5057219;28;20415;-83
2022/04/19 07:57:56;;;;;;;1.30;1.13;;;19.10;1.00;;;;;;5056895;28;20472;-83
2022/04/19 08:00:22;;;;;;;1.57;1.27;;;17.90;1.00;;;;;;5056826;28;20168;-83
2022/04/19 08:02:47;;;;;;;4.23;1.50;;;18.60;1.00;;;;;;5056730;28;20240;-84
2022/04/19 08:05:13;;;;;;;1.93;1.70;;;20.20;1.00;;;;;;5056983;28;20173;-86
2022/04/19 08:07:39;;;;;;;2.23;0.97;;;21.00;1.00;;;;;;5056518;28;20181;-85
2022/04/19 08:10:05;;;;;;;1.43;1.23;;;20.80;1.00;;;;;;5056562;28;20416;-86
2022/04/19 08:12:32;;;;;;;1.40;1.23;;;20.40;1.00;;;;;;5056496;28;20165;-85
2022/04/19 08:14:58;;;;;;;2.13;1.10;;;20.70;1.00;;;;;;5056581;28;20972;-85
2022/04/19 08:17:23;;;;;;;2.20;1.13;;;20.70;1.00;;;;;;5056863;28;20507;-86
2022/04/19 08:19:49;;;;;;;2.50;0.70;;;20.10;1.00;;;;;;5056376;28;20947;-86
2022/04/19 08:22:16;;;;;;;2.07;1.10;;;20.30;1.00;;;;;;5056740;28;20205;-86
2022/04/19 08:24:42;;;;;;;1.70;0.90;;;21.50;1.00;;;;;;5056718;28;20168;-86
2022/04/19 08:27:07;;;;;;;1.87;1.03;;;21.70;1.00;;;;;;5056177;28;20416;-86
2022/04/19 08:29:33;;;;;;;3.63;1.43;;;21.60;1.00;;;;;;5056268;28;20236;-85
2022/04/19 08:31:58;;;;;;;1.80;1.10;;;19.80;1.00;;;;;;5056551;28;20166;-86
2022/04/19 08:34:24;;;;;;;2.60;1.27;;;20.10;1.00;;;;;;5056517;28;20169;-86
2022/04/19 08:36:49;;;;;;;6.10;1.10;;;20.10;1.00;;;;;;5056232;28;20174;-86
2022/04/19 08:39:15;;;;;;;2.77;1.60;;;21.30;1.00;;;;;;5056453;28;20166;-85
2022/04/19 08:41:41;;;;;;;2.10;1.60;;;21.30;1.00;;;;;;5056392;28;20198;-85
2022/04/19 08:44:07;;;;;;;2.37;1.40;;;20.00;1.00;;;;;;5056027;28;20188;-85
2022/04/19 08:46:34;;;;;;;3.50;1.87;;;20.60;1.00;;;;;;5056405;28;20887;-85
2022/04/19 08:49:04;;;;;;;4.03;1.47;;;21.20;1.00;;;;;;5037932;28;20463;-86
2022/04/19 08:51:34;;;;;;;6.07;1.97;;;22.30;1.00;;;;;;5055897;28;20423;-85
2022/04/19 08:59:31;;;;;;;3.13;1.70;;;18.80;1.00;;;;;;5056151;28;20428;-85
2022/04/19 09:01:57;;;;;;;3.83;1.40;;;20.40;1.00;;;;;;5054371;28;20883;-86
2022/04/19 09:04:23;;;;;;;4.10;1.93;;;20.30;1.00;;;;;;5055897;28;20482;-85
2022/04/19 09:06:53;;;;;;;3.13;2.10;;;21.10;1.00;;;;;;5055550;28;20424;-86
2022/04/19 09:09:34;;;;;;;2.37;1.33;;;20.70;1.00;;;;;;5055803;28;20197;-86
2022/04/19 09:12:10;;;;;;;2.37;1.50;;;21.80;1.00;;;;;;5055531;28;20417;-86
2022/04/19 09:14:54;;;;;;;2.80;2.27;;;21.30;1.00;;;;;;5055421;28;20966;-85
2022/04/19 09:17:30;;;;;;;3.00;1.70;;;20.30;1.00;;;;;;5055411;28;20880;-85
2022/04/19 09:20:15;;;;;;;4.30;2.30;;;21.80;1.00;;;;;;5055627;28;20407;-86
2022/04/19 09:22:42;;;;;;;4.70;2.43;;;22.00;1.00;;;;;;5055609;28;20467;-86
2022/04/19 09:25:19;;;;;;;2.70;2.07;;;23.10;1.00;;;;;;5055612;28;20904;-86
2022/04/19 09:27:47;;;;;;;4.07;1.87;;;22.40;1.00;;;;;;5055391;28;20465;-87
2022/04/19 09:30:24;;;;;;;3.33;1.70;;;23.20;1.00;;;;;;5055168;28;20417;-86
2022/04/19 09:32:59;;;;;;;3.70;1.37;;;22.40;1.00;;;;;;5055456;28;20400;-85
2022/04/19 09:35:45;;;;;;;4.40;1.53;;;22.20;1.00;;;;;;5055187;28;20414;-84
2022/04/19 09:38:12;;;;;;;2.70;1.33;;;22.60;1.00;;;;;;5055314;28;20400;-84
2022/04/19 09:40:44;;;;;;;2.90;1.00;;;22.80;1.00;;;;;;5054948;28;20507;-84
2022/04/19 09:43:23;;;;;;;3.00;0.93;;;23.10;1.00;;;;;;5055243;28;20401;-84
2022/04/19 09:45:58;;;;;;;3.43;2.00;;;23.30;1.00;;;;;;5055219;28;20434;-84
2022/04/19 09:48:29;;;;;;;2.50;1.07;;;23.10;1.00;;;;;;5054722;28;21087;-85
2022/04/19 09:51:09;;;;;;;1.70;0.90;;;22.90;1.00;;;;;;5054759;28;20413;-84
2022/04/19 09:53:43;;;;;;;4.63;1.67;;;22.50;1.00;;;;;;5054770;28;20392;-83
2022/04/19 09:56:09;;;;;;;3.20;1.40;;;22.80;1.00;;;;;;5054618;28;20418;-84
2022/04/19 09:58:38;;;;;;;1.50;0.90;;;23.10;1.00;;;;;;5054709;28;20408;-84
2022/04/19 10:01:04;;;;;;;1.73;1.10;;;22.20;1.00;;;;;;5054418;28;20232;-84
2022/04/19 10:09:04;;;;;;;1.17;0.93;;;23.00;1.00;;;;;;5054539;28;20506;-87
2022/04/19 10:11:29;;;;;;;4.83;1.60;;;23.20;1.00;;;;;;5054117;28;20434;-84
2022/04/19 10:13:56;;;;;;;3.37;1.10;;;23.00;1.00;;;;;;5054476;28;20552;-85
2022/04/19 10:16:22;;;;;;;1.33;0.70;;;22.60;1.00;;;;;;5054309;28;20170;-83
2022/04/19 10:18:47;;;;;;;2.60;1.47;;;23.30;1.00;;;;;;5054556;28;20469;-82
2022/04/19 10:21:26;;;;;;;3.97;0.90;;;23.10;1.00;;;;;;5054192;28;20170;-83
2022/04/19 10:24:11;;;;;;;1.50;0.60;;;23.70;1.00;;;;;;5054201;28;20193;-83
2022/04/19 10:26:47;;;;;;;3.00;0.90;;;23.30;1.00;;;;;;5054084;28;20415;-83
2022/04/19 10:29:20;;;;;;;1.53;0.67;;;23.20;1.00;;;;;;5053838;28;20462;-83
2022/04/19 10:32:01;;;;;;;1.33;0.33;;;22.30;1.00;;;;;;5053962;28;21065;-83
2022/04/19 10:34:33;;;;;;;2.30;0.83;;;23.00;1.00;;;;;;5054199;28;20392;-83
2022/04/19 10:37:18;;;;;;;2.80;0.73;;;22.30;1.00;;;;;;5054260;28;20530;-84
2022/04/19 10:39:48;;;;;;;1.90;1.00;;;21.50;1.00;;;;;;5053873;28;20412;-82
2022/04/19 10:42:28;;;;;;;2.47;1.27;;;21.30;1.00;;;;;;5053794;28;20923;-82
2022/04/19 10:44:55;;;;;;;1.40;0.60;;;21.20;1.00;;;;;;5054021;28;20415;-84
2022/04/19 10:47:23;;;;;;;1.33;0.37;;;21.80;1.00;;;;;;5053784;28;20553;-82
2022/04/19 10:49:49;;;;;;;3.03;0.70;;;23.10;1.00;;;;;;5053554;28;20870;-82
2022/04/19 10:52:37;;;;;;;1.33;0.40;;;22.80;1.00;;;;;;5054005;28;20908;-88
2022/04/19 10:55:10;;;;;;;1.37;0.83;;;20.80;1.00;;;;;;5054093;28;20413;-89
2022/04/19 10:58:18;;;;;;;1.57;0.50;;;20.90;1.00;;;;;;5053752;28;20401;-89
2022/04/19 11:00:48;;;;;;;1.80;0.77;;;22.10;1.00;;;;;;5053786;28;20388;-91
2022/04/19 11:03:15;;;;;;;1.40;0.60;;;21.90;1.00;;;;;;5054328;28;20861;-84
2022/04/19 11:05:46;;;;;;;1.10;0.47;;;22.10;1.00;;;;;;5054097;28;20411;-91
2022/04/19 11:08:26;;;;;;;1.80;0.60;;;22.50;1.00;;;;;;5056901;28;20464;-90
2022/04/19 11:10:55;;;;;;;0.73;0.30;;;21.70;1.00;;;;;;5053978;28;20448;-88
2022/04/19 11:13:29;;;;;;;1.23;0.30;;;23.00;1.00;;;;;;5054434;28;20470;-91
2022/04/19 11:16:07;;;;;;;1.30;0.53;;;22.50;1.00;;;;;;5053792;28;20518;-85
2022/04/19 11:18:34;;;;;;;2.80;1.00;;;22.90;1.00;;;;;;5035808;28;20491;-82
2022/04/19 11:21:03;;;;;;;1.83;0.40;;;22.30;1.00;;;;;;5053589;28;20416;-80
2022/04/19 11:23:40;;;;;;;0.90;0.50;;;21.50;1.00;;;;;;5052596;28;20408;-82
2022/04/19 11:26:08;;;;;;;2.40;0.57;;;22.50;1.00;;;;;;5053504;28;20404;-81
2022/04/19 11:28:34;;;;;;;1.07;0.23;;;22.20;1.00;;;;;;5053086;28;20482;-81
2022/04/19 11:31:00;;;;;;;1.50;0.30;;;22.50;1.00;;;;;;5053493;28;20767;-82
2022/04/19 11:33:34;;;;;;;1.50;0.30;;;23.50;1.00;;;;;;5053348;28;20411;-82
2022/04/19 11:36:15;;;;;;;0.67;0.30;;;23.10;1.00;;;;;;5053471;28;20403;-82
2022/04/19 11:38:48;;;;;;;1.37;0.33;;;23.30;1.00;;;;;;5053555;28;20899;-81
2022/04/19 11:46:44;;;;;;;0.70;0.20;;;23.70;1.00;;;;;;5053654;28;20891;-82
2022/04/19 11:46:58;;;;;;;1.87;0.50;;;23.70;1.00;;;;;;5052898;28;20409;-82
2022/04/19 11:49:24;;;;;;;2.83;0.43;;;21.80;1.00;;;;;;5053117;28;20698;-82
2022/04/19 11:51:52;;;;;;;1.57;0.80;;;22.30;1.00;;;;;;5053228;28;20416;-82
2022/04/19 11:54:32;;;;;;;2.30;0.70;;;23.00;1.00;;;;;;5053148;28;20420;-82
2022/04/19 11:57:00;;;;;;;0.97;0.40;;;22.70;1.00;;;;;;5052873;28;20557;-81
2022/04/19 11:59:30;;;;;;;1.20;0.43;;;23.00;1.00;;;;;;5052938;28;20416;-81
2022/04/19 12:01:57;;;;;;;1.37;0.27;;;21.60;1.00;;;;;;5052605;28;20963;-82
2022/04/19 12:04:23;;;;;;;1.13;0.30;;;22.40;1.00;;;;;;5053325;28;20780;-82
2022/04/19 12:06:53;;;;;;;4.20;0.60;;;23.10;1.00;;;;;;5053270;28;20423;-81
2022/04/19 12:09:19;;;;;;;1.40;0.23;;;21.40;1.00;;;;;;5052487;28;20456;-82
2022/04/19 12:11:47;;;;;;;1.27;0.30;;;21.70;1.00;;;;;;5052886;28;20416;-81
2022/04/19 12:14:48;;;;;;;1.07;0.30;;;21.20;1.00;;;;;;5052906;28;20439;-81
2022/04/19 12:17:19;;;;;;;0.73;0.20;;;22.30;1.00;;;;;;5035981;28;20424;-82
2022/04/19 12:19:45;;;;;;;0.73;0.20;;;22.40;1.00;;;;;;5052739;28;20400;-82
2022/04/19 12:22:18;;;;;;;0.90;0.50;;;21.90;1.00;;;;;;5052956;28;20912;-82
2022/04/19 12:24:46;;;;;;;1.03;0.20;;;21.10;1.00;;;;;;5052999;28;20488;-82
2022/04/19 12:27:11;;;;;;;0.50;0.20;;;22.90;1.00;;;;;;5052625;28;20445;-82
2022/04/19 12:29:53;;;;;;;0.87;0.30;;;23.00;1.00;;;;;;5052744;28;20487;-82
2022/04/19 12:32:19;;;;;;;0.50;0.30;;;21.50;1.00;;;;;;5052701;28;20246;-82
2022/04/19 12:34:44;;;;;;;1.13;0.20;;;22.40;1.00;;;;;;5053482;28;20506;-82
2022/04/19 12:37:17;;;;;;;0.83;0.20;;;21.80;1.00;;;;;;5056459;28;20268;-82
2022/04/19 12:39:57;;;;;;;0.60;0.30;;;21.60;1.00;;;;;;5056429;28;20216;-82
2022/04/19 12:42:22;;;;;;;1.07;0.30;;;22.60;1.00;;;;;;5056109;28;20393;-81
2022/04/19 12:45:03;;;;;;;0.97;0.40;;;22.40;1.00;;;;;;5056311;28;20503;-82
2022/04/19 12:47:28;;;;;;;0.70;0.20;;;21.20;1.00;;;;;;5056025;28;20198;-82
2022/04/19 12:49:55;;;;;;;1.47;0.43;;;21.50;1.00;;;;;;5056114;28;20492;-83
2022/04/19 12:52:30;;;;;;;1.17;0.40;;;21.20;1.00;;;;;;5056090;28;20173;-82
2022/04/19 12:55:00;;;;;;;1.50;0.40;;;22.00;1.00;;;;;;5056184;28;20446;-82
2022/04/19 12:57:25;;;;;;;1.43;0.40;;;21.60;1.00;;;;;;5055707;28;20440;-82
2022/04/19 12:59:51;;;;;;;0.83;0.50;;;22.00;1.00;;;;;;5055803;28;20448;-82
2022/04/19 13:02:18;;;;;;;1.03;0.30;;;21.30;1.00;;;;;;5055520;28;20229;-82
2022/04/19 13:04:45;;;;;;;1.10;0.60;;;21.50;1.00;;;;;;5055696;28;20521;-82
2022/04/19 13:12:39;;;;;;;1.90;0.60;;;22.00;1.00;;;;;;5055825;28;20430;-82
2022/04/19 13:15:05;;;;;;;1.60;0.80;;;21.20;1.00;;;;;;5055536;28;20420;-81
2022/04/19 13:17:33;;;;;;;0.90;0.60;;;21.70;1.00;;;;;;5055651;28;20178;-82
2022/04/19 13:19:59;;;;;;;1.80;0.57;;;21.10;1.00;;;;;;5055604;28;20792;-82
2022/04/19 13:22:25;;;;;;;2.83;0.83;;;20.90;1.00;;;;;;5055618;28;20404;-82
2022/04/19 13:24:50;;;;;;;0.87;0.50;;;20.20;1.00;;;;;;5055363;28;20174;-82
2022/04/19 13:27:17;;;;;;;1.70;0.70;;;20.70;1.00;;;;;;5055482;28;20423;-82
2022/04/19 13:29:44;;;;;;;2.43;0.97;;;20.50;1.00;;;;;;5055302;28;20296;-82
2022/04/19 13:32:11;;;;;;;1.17;0.63;;;20.60;1.00;;;;;;5055206;28;20408;-82
2022/04/19 13:34:36;;;;;;;1.07;0.90;;;20.30;1.00;;;;;;5055080;28;20419;-82
2022/04/19 13:37:03;;;;;;;1.43;1.07;;;19.30;1.00;;;;;;5055064;28;20405;-82
2022/04/19 13:39:29;;;;;;;1.63;1.30;;;19.00;1.00;;;;;;5055028;28;20182;-84
2022/04/19 13:41:55;;;;;;;2.77;0.93;;;19.20;1.00;;;;;;5055166;28;20931;-84
2022/04/19 13:44:21;;;;;;;2.90;1.27;;;19.30;1.00;;;;;;5054927;28;20416;-84
2022/04/19 13:46:48;;;;;;;1.40;0.40;;;19.20;1.00;;;;;;5054770;28;20169;-83
2022/04/19 13:49:15;;;;;;;1.40;0.70;;;18.80;1.00;;;;;;5055045;28;20805;-83